createdAt,value
2024-01-05T00:00:33.361Z,7.32
2024-01-05T00:03:01.178Z,7.20
2024-01-05T00:05:28.151Z,7.68
2024-01-05T00:07:54.604Z,7.63
2024-01-05T00:10:20.989Z,8.43
2024-01-05T00:12:47.518Z,7.95
2024-01-05T00:15:14.021Z,7.60
2024-01-05T00:17:40.562Z,7.47
2024-01-05T00:20:08.902Z,8.18
2024-01-05T00:22:35.553Z,8.57
2024-01-05T00:25:01.939Z,8.45
2024-01-05T00:27:28.498Z,7.60
2024-01-05T00:29:54.957Z,8.02
2024-01-05T00:32:21.352Z,6.93
2024-01-05T00:34:48.025Z,7.18
2024-01-05T00:37:14.479Z,8.07
2024-01-05T00:39:41.439Z,8.25
2024-01-05T00:42:08.023Z,7.53
2024-01-05T00:44:34.532Z,7.75
2024-01-05T00:47:01.210Z,7.43
2024-01-05T00:49:27.754Z,8.68
2024-01-05T00:51:54.153Z,7.40
2024-01-05T00:54:20.639Z,6.72
2024-01-05T00:56:47.713Z,7.53
2024-01-05T00:59:14.239Z,7.43
2024-01-05T01:01:40.612Z,7.78
2024-01-05T01:04:07.041Z,7.30
2024-01-05T01:06:33.473Z,6.70
2024-01-05T01:09:00.089Z,7.70
2024-01-05T01:11:28.466Z,6.85
2024-01-05T01:13:55.221Z,7.15
2024-01-05T01:16:21.672Z,7.15
2024-01-05T01:18:48.149Z,7.55
2024-01-05T01:21:14.724Z,8.20
2024-01-05T01:23:41.277Z,8.27
2024-01-05T01:26:07.668Z,7.65
2024-01-05T01:28:34.034Z,9.27
2024-01-05T01:31:00.628Z,7.10
2024-01-05T01:33:27.249Z,6.97
2024-01-05T01:35:54.171Z,7.60
2024-01-05T01:38:20.561Z,6.95
2024-01-05T01:40:47.556Z,7.25
2024-01-05T01:43:21.275Z,7.60
2024-01-05T01:45:48.039Z,7.10
2024-01-05T01:48:15.658Z,7.75
2024-01-05T01:50:42.076Z,7.55
2024-01-05T01:53:08.674Z,7.10
2024-01-05T01:55:35.115Z,6.80
2024-01-05T01:58:01.533Z,7.30
2024-01-05T02:00:28.855Z,6.88
2024-01-05T02:02:55.499Z,6.90
2024-01-05T02:05:22.166Z,6.80
2024-01-05T02:07:48.825Z,7.43
2024-01-05T02:10:15.315Z,7.20
2024-01-05T02:12:43.211Z,7.25
2024-01-05T02:15:09.700Z,7.35
2024-01-05T02:17:36.248Z,7.30
2024-01-05T02:20:03.270Z,7.20
2024-01-05T02:22:30.405Z,6.45
2024-01-05T02:24:57.426Z,6.55
2024-01-05T02:27:24.583Z,7.10
2024-01-05T02:29:51.120Z,6.20
2024-01-05T02:32:17.742Z,6.25
2024-01-05T02:34:44.311Z,6.43
2024-01-05T02:37:10.877Z,6.13
2024-01-05T02:39:37.308Z,5.60
2024-01-05T02:42:03.955Z,7.18
2024-01-05T02:44:30.414Z,6.07
2024-01-05T02:46:57.154Z,5.75
2024-01-05T02:49:24.034Z,5.22
2024-01-05T02:51:50.434Z,5.53
2024-01-05T02:54:16.815Z,5.28
2024-01-05T02:56:43.487Z,6.03
2024-01-05T02:59:09.998Z,5.57
2024-01-05T03:01:36.440Z,4.88
2024-01-05T03:04:03.200Z,5.15
2024-01-05T03:06:29.937Z,6.95
2024-01-05T03:08:56.414Z,4.72
2024-01-05T03:11:22.919Z,4.78
2024-01-05T03:13:49.302Z,5.28
2024-01-05T03:16:15.804Z,4.45
2024-01-05T03:18:42.374Z,4.80
2024-01-05T03:21:08.808Z,4.57
2024-01-05T03:23:35.214Z,3.90
2024-01-05T03:26:01.542Z,3.63
2024-01-05T03:28:27.974Z,3.70
2024-01-05T03:30:54.434Z,3.63
2024-01-05T03:33:21.660Z,4.10
2024-01-05T03:35:48.085Z,3.38
2024-01-05T03:38:14.417Z,4.22
2024-01-05T03:40:40.783Z,3.10
2024-01-05T03:43:07.212Z,3.20
2024-01-05T03:45:33.700Z,3.40
2024-01-05T03:48:00.161Z,4.82
2024-01-05T03:50:26.693Z,2.75
2024-01-05T03:52:53.059Z,3.50
2024-01-05T03:55:19.407Z,2.75
2024-01-05T03:57:45.992Z,2.78
2024-01-05T04:00:12.595Z,3.40
2024-01-05T04:02:39.071Z,2.30
2024-01-05T04:05:05.826Z,2.35
2024-01-05T04:07:32.216Z,2.67
2024-01-05T04:09:58.720Z,3.03
2024-01-05T04:12:25.190Z,2.10
2024-01-05T04:14:51.647Z,2.40
2024-01-05T04:17:18.003Z,2.55
2024-01-05T04:19:44.428Z,2.85
2024-01-05T04:22:10.833Z,2.80
2024-01-05T04:24:37.209Z,2.00
2024-01-05T04:27:03.673Z,2.25
2024-01-05T04:29:30.341Z,3.13
2024-01-05T04:31:56.713Z,2.22
2024-01-05T04:34:23.268Z,1.85
2024-01-05T04:36:49.645Z,2.15
2024-01-05T04:39:16.129Z,2.17
2024-01-05T04:41:42.742Z,2.00
2024-01-05T04:44:09.141Z,2.72
2024-01-05T04:46:35.535Z,1.95
2024-01-05T04:49:01.918Z,1.58
2024-01-05T04:51:28.456Z,1.70
2024-01-05T04:53:55.175Z,2.00
2024-01-05T04:56:21.635Z,1.88
2024-01-05T04:58:48.052Z,2.35
2024-01-05T05:01:14.360Z,2.88
2024-01-05T05:03:40.925Z,2.13
2024-01-05T05:06:07.611Z,2.00
2024-01-05T05:08:33.958Z,1.77
2024-01-05T05:11:00.281Z,1.92
2024-01-05T05:13:26.632Z,1.55
2024-01-05T05:15:53.039Z,2.60
2024-01-05T05:18:19.536Z,2.97
2024-01-05T05:20:46.047Z,1.90
2024-01-05T05:23:12.375Z,2.15
2024-01-05T05:25:38.852Z,1.73
2024-01-05T05:28:05.902Z,1.70
2024-01-05T05:30:32.982Z,3.13
2024-01-05T05:32:59.548Z,1.83
2024-01-05T05:35:26.136Z,1.88
2024-01-05T05:37:52.475Z,2.60
2024-01-05T05:40:19.003Z,1.83
2024-01-05T05:42:45.386Z,1.88
2024-01-05T05:45:12.291Z,2.28
2024-01-05T05:47:38.729Z,1.95
2024-01-05T05:50:08.255Z,1.70
2024-01-05T05:52:36.116Z,2.17
2024-01-05T05:55:03.060Z,2.00
2024-01-05T05:57:29.628Z,2.45
2024-01-05T05:59:56.015Z,2.40
2024-01-05T06:02:22.323Z,2.00
2024-01-05T06:04:48.800Z,2.33
2024-01-05T06:07:15.355Z,1.85
2024-01-05T06:09:42.092Z,2.53
2024-01-05T06:12:08.564Z,1.90
2024-01-05T06:14:34.994Z,2.42
2024-01-05T06:17:01.351Z,2.50
2024-01-05T06:19:28.243Z,2.20
2024-01-05T06:21:54.705Z,1.77
2024-01-05T06:24:21.127Z,1.90
2024-01-05T06:26:47.543Z,1.73
2024-01-05T06:29:13.938Z,2.05
2024-01-05T06:31:40.963Z,1.85
2024-01-05T06:34:07.566Z,2.00
2024-01-05T06:36:34.084Z,2.00
2024-01-05T06:39:00.697Z,2.88
2024-01-05T06:41:27.268Z,2.00
2024-01-05T06:43:54.054Z,2.10
2024-01-05T06:46:20.493Z,1.92
2024-01-05T06:48:47.230Z,2.50
2024-01-05T06:51:13.760Z,1.50
2024-01-05T06:53:40.212Z,2.05
2024-01-05T06:56:06.799Z,3.38
2024-01-05T06:58:35.345Z,1.95
2024-01-05T07:01:02.511Z,2.22
2024-01-05T07:03:29.156Z,2.42
2024-01-05T07:05:55.758Z,1.95
2024-01-05T07:08:22.311Z,2.08
2024-01-05T07:10:48.706Z,1.90
2024-01-05T07:13:15.238Z,2.10
2024-01-05T07:15:41.745Z,1.77
2024-01-05T07:18:08.286Z,2.05
2024-01-05T07:20:34.791Z,1.45
2024-01-05T07:23:01.301Z,1.45
2024-01-05T07:25:27.620Z,1.48
2024-01-05T07:27:54.227Z,1.38
2024-01-05T07:30:21.050Z,1.73
2024-01-05T07:32:47.557Z,1.80
2024-01-05T07:35:14.325Z,1.65
2024-01-05T07:37:41.056Z,1.30
2024-01-05T07:40:07.683Z,1.90
2024-01-05T07:42:34.360Z,1.60
2024-01-05T07:45:01.509Z,1.40
2024-01-05T07:47:28.029Z,1.00
2024-01-05T07:49:54.508Z,1.20
2024-01-05T07:52:20.982Z,1.00
2024-01-05T07:54:47.500Z,1.15
2024-01-05T07:57:13.920Z,1.20
2024-01-05T07:59:40.879Z,0.75
2024-01-05T08:02:07.331Z,0.90
2024-01-05T08:04:35.400Z,0.70
2024-01-05T08:07:01.904Z,0.82
2024-01-05T08:09:28.332Z,0.60
2024-01-05T08:11:54.770Z,0.90
2024-01-05T08:14:21.208Z,0.70
2024-01-05T08:16:47.958Z,0.50
2024-01-05T08:19:14.670Z,0.88
2024-01-05T08:21:41.365Z,0.70
2024-01-05T08:24:08.100Z,0.60
2024-01-05T08:26:34.798Z,0.70
2024-01-05T08:29:01.133Z,0.80
2024-01-05T08:31:27.616Z,0.80
2024-01-05T08:33:54.330Z,0.82
2024-01-05T08:36:21.190Z,0.68
2024-01-05T08:38:47.594Z,0.80
2024-01-05T08:41:14.014Z,0.80
2024-01-05T08:43:45.058Z,0.98
2024-01-05T08:46:12.119Z,0.80
2024-01-05T08:48:39.672Z,0.75
2024-01-05T08:51:06.045Z,0.70
2024-01-05T08:53:32.408Z,0.80
2024-01-05T08:55:58.794Z,0.90
2024-01-05T08:58:25.228Z,0.95
2024-01-05T09:00:51.614Z,1.00
2024-01-05T09:03:18.916Z,1.23
2024-01-05T09:05:46.830Z,0.90
2024-01-05T09:08:13.317Z,0.90
2024-01-05T09:10:39.803Z,0.70
2024-01-05T09:13:06.163Z,1.05
2024-01-05T09:15:32.513Z,1.08
2024-01-05T09:17:59.102Z,1.10
2024-01-05T09:20:25.693Z,1.02
2024-01-05T09:22:52.061Z,1.10
2024-01-05T09:25:18.688Z,1.00
2024-01-05T09:27:45.061Z,1.20
2024-01-05T09:30:11.948Z,1.40
2024-01-05T09:32:38.414Z,1.10
2024-01-05T09:35:05.493Z,1.10
2024-01-05T09:37:31.913Z,1.27
2024-01-05T09:39:58.304Z,1.38
2024-01-05T09:42:25.148Z,1.15
2024-01-05T09:44:53.580Z,1.40
2024-01-05T09:47:20.820Z,1.60
2024-01-05T09:49:50.331Z,1.60
2024-01-05T09:52:19.290Z,1.60
2024-01-05T09:54:47.462Z,1.85
2024-01-05T09:57:17.934Z,2.10
2024-01-05T09:59:48.815Z,1.98
2024-01-05T10:02:24.767Z,2.13
2024-01-05T10:04:51.200Z,1.63
2024-01-05T10:07:17.634Z,1.70
2024-01-05T10:09:51.102Z,1.60
2024-01-05T10:12:19.174Z,1.85
2024-01-05T10:14:48.523Z,2.00
2024-01-05T10:17:17.128Z,2.03
2024-01-05T10:19:44.092Z,2.60
2024-01-05T10:22:13.911Z,1.75
2024-01-05T10:24:41.064Z,1.67
2024-01-05T10:27:08.805Z,1.90
2024-01-05T10:29:37.560Z,2.67
2024-01-05T10:32:14.165Z,2.20
2024-01-05T10:34:42.293Z,2.15
2024-01-05T10:37:09.472Z,2.90
2024-01-05T10:39:36.527Z,2.88
2024-01-05T10:42:22.313Z,2.67
2024-01-05T10:47:15.955Z,3.03
2024-01-05T10:49:46.704Z,3.10
2024-01-05T10:52:13.514Z,3.17
2024-01-05T10:54:40.351Z,3.10
2024-01-05T10:57:07.985Z,2.78
2024-01-05T10:59:35.177Z,4.43
2024-01-05T11:02:03.740Z,4.00
2024-01-05T11:04:32.011Z,3.20
2024-01-05T11:07:00.076Z,3.90
2024-01-05T11:09:41.189Z,3.42
2024-01-05T11:12:28.965Z,3.53
2024-01-05T11:15:01.958Z,3.55
2024-01-05T11:17:36.669Z,3.83
2024-01-05T11:20:20.207Z,3.50
2024-01-05T11:22:48.556Z,3.38
2024-01-05T11:25:16.558Z,3.90
2024-01-05T11:27:49.601Z,3.28
2024-01-05T11:30:36.102Z,3.50
2024-01-05T11:33:02.655Z,3.60
2024-01-05T11:35:51.306Z,3.05
2024-01-05T11:38:27.718Z,3.38
2024-01-05T11:40:54.474Z,3.30
2024-01-05T11:43:29.961Z,3.85
2024-01-05T11:48:35.415Z,3.17
2024-01-05T11:51:08.341Z,3.35
2024-01-05T11:53:34.821Z,4.20
2024-01-05T11:56:04.381Z,2.90
2024-01-05T11:58:40.186Z,3.70
2024-01-05T12:01:08.560Z,3.08
2024-01-05T12:03:35.195Z,3.50
2024-01-05T12:06:02.526Z,3.63
2024-01-05T12:08:29.294Z,3.47
2024-01-05T12:11:01.862Z,3.00
2024-01-05T12:13:28.679Z,3.30
2024-01-05T12:16:01.189Z,2.67
2024-01-05T12:18:36.895Z,3.10
2024-01-05T12:21:05.474Z,2.75
2024-01-05T12:23:32.019Z,3.17
2024-01-05T12:26:01.141Z,3.15
2024-01-05T12:28:31.636Z,3.00
2024-01-05T12:30:58.906Z,3.30
2024-01-05T12:33:26.347Z,3.20
2024-01-05T12:35:53.444Z,3.20
2024-01-05T12:38:24.360Z,3.38
2024-01-05T12:40:51.285Z,3.88
2024-01-05T12:43:18.372Z,3.47
2024-01-05T12:45:47.528Z,4.30
2024-01-05T12:48:14.323Z,4.20
2024-01-05T12:50:41.462Z,4.13
2024-01-05T12:53:20.945Z,3.97
2024-01-05T12:55:47.678Z,4.90
2024-01-05T12:58:14.034Z,3.90
2024-01-05T13:00:45.625Z,4.65
2024-01-05T13:03:18.109Z,4.75
2024-01-05T13:05:44.687Z,4.53
2024-01-05T13:08:11.249Z,5.57
2024-01-05T13:10:40.739Z,5.65
2024-01-05T13:13:07.569Z,5.72
2024-01-05T13:15:34.310Z,7.38
2024-01-05T13:18:01.453Z,7.65
2024-01-05T13:20:27.966Z,8.27
2024-01-05T13:23:01.182Z,9.05
2024-01-05T13:25:27.855Z,8.82
2024-01-05T13:27:54.865Z,8.93
2024-01-05T13:30:21.412Z,10.15
2024-01-05T13:32:51.162Z,11.23
2024-01-05T13:35:17.809Z,11.05
2024-01-05T13:37:44.345Z,10.52
2024-01-05T13:40:11.450Z,11.68
2024-01-05T13:42:37.926Z,11.40
2024-01-05T13:45:06.656Z,10.82
2024-01-05T13:47:34.270Z,10.55
2024-01-05T13:50:00.814Z,10.43
2024-01-05T13:52:27.413Z,11.07
2024-01-05T13:54:54.337Z,10.38
2024-01-05T13:57:23.007Z,9.80
2024-01-05T13:59:49.950Z,9.70
2024-01-05T14:02:21.476Z,10.60
2024-01-05T14:04:50.946Z,9.52
2024-01-05T14:07:17.353Z,10.93
2024-01-05T14:09:43.887Z,9.35
2024-01-05T14:12:11.162Z,9.38
2024-01-05T14:14:37.795Z,8.57
2024-01-05T14:17:04.564Z,9.23
2024-01-05T14:19:31.252Z,8.10
2024-01-05T14:21:58.529Z,7.85
2024-01-05T14:24:27.971Z,7.25
2024-01-05T14:26:54.470Z,6.90
2024-01-05T14:29:21.427Z,7.10
2024-01-05T14:31:48.928Z,7.10
2024-01-05T14:34:15.453Z,7.18
2024-01-05T14:36:41.895Z,6.38
2024-01-05T14:39:08.396Z,5.85
2024-01-05T14:41:34.886Z,5.60
2024-01-05T14:44:01.325Z,4.47
2024-01-05T14:46:28.499Z,6.35
2024-01-05T14:48:55.297Z,6.07
2024-01-05T14:51:21.872Z,5.80
2024-01-05T14:53:48.289Z,6.60
2024-01-05T14:56:15.781Z,6.10
2024-01-05T14:58:44.716Z,6.20
2024-01-05T15:01:12.628Z,6.35
2024-01-05T15:03:40.185Z,6.70
2024-01-05T15:06:07.809Z,5.85
2024-01-05T15:08:34.393Z,6.03
2024-01-05T15:11:01.152Z,6.15
2024-01-05T15:13:28.548Z,6.25
2024-01-05T15:15:54.943Z,6.22
2024-01-05T15:18:21.799Z,6.30
2024-01-05T15:20:48.377Z,6.28
2024-01-05T15:23:15.228Z,5.50
2024-01-05T15:25:41.673Z,6.05
2024-01-05T15:28:08.066Z,5.68
2024-01-05T15:30:34.710Z,4.78
2024-01-05T15:33:01.207Z,4.78
2024-01-05T15:35:27.679Z,4.75
2024-01-05T15:37:55.272Z,3.55
2024-01-05T15:40:30.741Z,3.40
2024-01-05T15:43:00.599Z,3.17
2024-01-05T15:45:28.513Z,3.30
2024-01-05T15:47:54.952Z,3.55
2024-01-05T15:50:21.605Z,3.50
2024-01-05T15:52:47.984Z,2.70
2024-01-05T15:55:15.175Z,3.05
2024-01-05T15:57:43.122Z,3.33
2024-01-05T16:00:10.126Z,3.13
2024-01-05T16:02:37.708Z,2.90
2024-01-05T16:05:05.359Z,2.92
2024-01-05T16:07:32.348Z,3.28
2024-01-05T16:09:59.297Z,2.90
2024-01-05T16:12:25.697Z,2.97
2024-01-05T16:14:52.121Z,2.75
2024-01-05T16:17:18.625Z,2.13
2024-01-05T16:19:45.168Z,2.33
2024-01-05T16:22:11.624Z,2.28
2024-01-05T16:24:38.050Z,1.33
2024-01-05T16:27:04.717Z,1.50
2024-01-05T16:29:31.451Z,1.20
2024-01-05T16:31:57.851Z,1.25
2024-01-05T16:34:24.740Z,1.10
2024-01-05T16:36:51.302Z,1.23
2024-01-05T16:39:18.521Z,1.60
2024-01-05T16:41:47.704Z,1.60
2024-01-05T16:44:16.092Z,1.60
2024-01-05T16:46:42.449Z,1.70
2024-01-05T16:49:09.242Z,2.03
2024-01-05T16:51:36.063Z,1.92
2024-01-05T16:54:05.630Z,2.25
2024-01-05T16:56:33.998Z,2.20
2024-01-05T16:59:00.321Z,2.75
2024-01-05T17:01:28.939Z,3.83
2024-01-05T17:03:56.526Z,3.47
2024-01-05T17:06:23.459Z,4.00
2024-01-05T17:08:50.051Z,4.80
2024-01-05T17:11:16.401Z,3.78
2024-01-05T17:13:42.948Z,4.10
2024-01-05T17:16:10.336Z,4.63
2024-01-05T17:18:37.654Z,4.15
2024-01-05T17:21:06.958Z,4.15
2024-01-05T17:23:33.404Z,3.78
2024-01-05T17:26:02.034Z,3.03
2024-01-05T17:28:29.001Z,3.92
2024-01-05T17:30:56.452Z,4.18
2024-01-05T17:33:23.381Z,4.20
2024-01-05T17:35:52.386Z,4.13
2024-01-05T17:38:20.896Z,3.63
2024-01-05T17:40:47.324Z,3.70
2024-01-05T17:43:13.706Z,3.70
2024-01-05T17:45:40.331Z,3.22
2024-01-05T17:48:07.253Z,4.20
2024-01-05T17:50:33.829Z,4.55
2024-01-05T17:53:02.617Z,4.65
2024-01-05T17:55:29.142Z,4.40
2024-01-05T17:57:55.619Z,5.10
2024-01-05T18:00:21.998Z,4.43
2024-01-05T18:02:48.431Z,4.13
2024-01-05T18:05:14.935Z,4.60
2024-01-05T18:07:42.118Z,4.30
2024-01-05T18:10:09.135Z,4.53
2024-01-05T18:12:35.579Z,6.10
2024-01-05T18:15:02.045Z,4.47
2024-01-05T18:17:28.636Z,4.45
2024-01-05T18:19:56.554Z,4.20
2024-01-05T18:22:23.406Z,4.93
2024-01-05T18:24:49.751Z,5.47
2024-01-05T18:27:16.295Z,5.43
2024-01-05T18:29:42.896Z,5.78
2024-01-05T18:32:09.678Z,7.30
2024-01-05T18:34:37.384Z,5.63
2024-01-05T18:37:03.888Z,5.13
2024-01-05T18:39:30.295Z,5.22
2024-01-05T18:41:56.671Z,5.97
2024-01-05T18:44:23.589Z,6.10
2024-01-05T18:46:52.470Z,6.45
2024-01-05T18:49:19.772Z,6.18
2024-01-05T18:51:46.317Z,6.53
2024-01-05T18:54:13.056Z,6.13
2024-01-05T18:56:39.583Z,7.07
2024-01-05T18:59:06.276Z,6.75
2024-01-05T19:01:33.120Z,7.65
2024-01-05T19:04:00.256Z,8.18
2024-01-05T19:06:27.333Z,7.55
2024-01-05T19:08:53.842Z,7.45
2024-01-05T19:11:20.358Z,8.02
2024-01-05T19:13:46.724Z,12.38
2024-01-05T19:16:13.064Z,13.23
2024-01-05T19:18:39.878Z,11.27
2024-01-05T19:21:06.469Z,10.18
2024-01-05T19:23:33.150Z,8.82
2024-01-05T19:25:59.847Z,9.40
2024-01-05T19:28:27.608Z,8.70
2024-01-05T19:30:58.224Z,9.55
2024-01-05T19:33:24.801Z,9.70
2024-01-05T19:35:51.427Z,9.57
2024-01-05T19:38:18.727Z,9.57
2024-01-05T19:40:45.310Z,8.98
2024-01-05T19:43:11.979Z,8.90
2024-01-05T19:45:38.532Z,9.60
2024-01-05T19:48:05.939Z,8.43
2024-01-05T19:50:32.538Z,8.88
2024-01-05T19:53:01.470Z,9.00
2024-01-05T19:55:28.234Z,8.70
2024-01-05T19:57:54.647Z,8.40
2024-01-05T20:00:22.221Z,9.52
2024-01-05T20:02:48.988Z,9.43
2024-01-05T20:05:15.417Z,10.70
2024-01-05T20:07:41.832Z,9.57
2024-01-05T20:10:09.051Z,10.52
2024-01-05T20:12:36.378Z,9.38
2024-01-05T20:15:02.984Z,9.68
2024-01-05T20:17:29.443Z,9.55
2024-01-05T20:19:56.429Z,9.50
2024-01-05T20:22:24.821Z,8.95
2024-01-05T20:24:51.369Z,10.43
2024-01-05T20:27:18.114Z,11.20
2024-01-05T20:29:46.155Z,11.50
2024-01-05T20:32:13.563Z,10.43
2024-01-05T20:34:40.199Z,10.60
2024-01-05T20:37:06.603Z,11.27
2024-01-05T20:39:33.007Z,9.98
2024-01-05T20:41:59.385Z,10.52
2024-01-05T20:44:25.997Z,11.82
2024-01-05T20:46:52.804Z,10.90
2024-01-05T20:49:19.338Z,11.88
2024-01-05T20:51:47.017Z,12.38
2024-01-05T20:54:13.551Z,11.13
2024-01-05T20:56:40.375Z,11.27
2024-01-05T20:59:06.994Z,11.88
2024-01-05T21:01:33.496Z,12.77
2024-01-05T21:03:59.982Z,12.65
2024-01-05T21:06:26.548Z,13.05
2024-01-05T21:08:52.906Z,13.65
2024-01-05T21:11:24.732Z,14.25
2024-01-05T21:13:51.193Z,14.27
2024-01-05T21:16:17.585Z,13.75
2024-01-05T21:18:44.126Z,15.05
2024-01-05T21:21:10.534Z,15.07
2024-01-05T21:23:37.264Z,15.25
2024-01-05T21:26:04.908Z,13.35
2024-01-05T21:28:31.398Z,14.35
2024-01-05T21:30:57.994Z,14.75
2024-01-05T21:33:24.529Z,14.68
2024-01-05T21:35:50.978Z,15.15
2024-01-05T21:38:17.401Z,16.13
2024-01-05T21:40:44.938Z,14.93
2024-01-05T21:43:13.129Z,15.82
2024-01-05T21:45:41.579Z,14.02
2024-01-05T21:48:09.094Z,15.10
2024-01-05T21:50:35.870Z,14.95
2024-01-05T21:53:06.286Z,15.57
2024-01-05T21:55:32.965Z,15.32
2024-01-05T21:58:00.114Z,14.95
2024-01-05T22:00:28.588Z,15.20
2024-01-05T22:02:55.255Z,14.48
2024-01-05T22:05:22.421Z,13.27
2024-01-05T22:07:49.002Z,11.98
2024-01-05T22:10:15.407Z,12.20
2024-01-05T22:12:41.848Z,11.77
2024-01-05T22:15:08.454Z,11.10
2024-01-05T22:17:34.973Z,12.50
2024-01-05T22:20:01.580Z,12.18
2024-01-05T22:22:28.243Z,12.63
2024-01-05T22:24:54.793Z,12.55
2024-01-05T22:27:21.218Z,12.50
2024-01-05T22:29:47.668Z,12.43
2024-01-05T22:32:14.138Z,12.35
2024-01-05T22:34:41.990Z,11.52
2024-01-05T22:37:08.474Z,11.85
2024-01-05T22:39:34.928Z,11.25
2024-01-05T22:42:01.412Z,11.70
2024-01-05T22:44:27.929Z,10.90
2024-01-05T22:46:54.312Z,11.82
2024-01-05T22:49:20.867Z,10.98
2024-01-05T22:51:48.120Z,10.27
2024-01-05T22:54:14.567Z,10.85
2024-01-05T22:56:41.433Z,10.45
2024-01-05T22:59:07.800Z,11.10
2024-01-05T23:01:34.264Z,10.73
2024-01-05T23:04:03.311Z,9.55
2024-01-05T23:06:29.776Z,10.18
2024-01-05T23:08:56.186Z,10.20
2024-01-05T23:11:22.814Z,10.07
2024-01-05T23:13:49.214Z,10.50
2024-01-05T23:16:15.557Z,10.38
2024-01-05T23:18:42.797Z,8.82
2024-01-05T23:21:09.433Z,8.23
2024-01-05T23:23:37.789Z,8.20
2024-01-05T23:26:05.195Z,7.40
2024-01-05T23:28:31.567Z,8.15
2024-01-05T23:30:57.879Z,7.78
2024-01-05T23:33:24.365Z,7.95
2024-01-05T23:35:50.887Z,7.72
2024-01-05T23:38:18.056Z,7.75
2024-01-05T23:40:44.591Z,7.85
2024-01-05T23:43:11.243Z,8.48
2024-01-05T23:45:37.634Z,8.40
2024-01-05T23:48:04.340Z,7.60
2024-01-05T23:50:30.826Z,8.82
2024-01-05T23:52:57.166Z,7.53
2024-01-05T23:55:24.037Z,7.63
2024-01-05T23:57:50.495Z,7.50
